Latest Coastal Weather Observations for Mackay

IDQ60701

Issued at 6:43 am EST Wednesday 31 August 2016 (issued every 10 minutes, with the page automatically refreshed every 10 minutes)

About coastal observations | Map of coastal stations | Coastal observations for QLD | Marine services | Other Formats
Station Details ID: 033119 Name: MACKAY M.O Lat: -21.12 Lon: 149.22 Height: 30.26 m
Data from the previous 72 hours. | See also: Recent months at Mackay
Date/Time
EST
Temp
°C
Wind Pressure Rain since
9am
mm
Weather Cloud Vis
km
Sea
Height
m
Swell
Dir  Spd
kts
Gust
kts
hPa Trend Height
m
Period
s
Dir
31/06:30am 21.0 ESE 5 7 1022.5 - 0.0 - Cloudy - - - - -
31/06:00am 20.9 ESE 5 8 1022.2 F 0.0 - Cloudy - - - - -
31/05:30am 20.6 SE 6 9 1021.9 - 0.0 - Cloudy - - - - -
31/05:00am 20.4 ESE 5 9 1021.5 - 0.0 - Partly cloudy - - - - -
31/04:30am 20.7 SE 5 9 1021.3 - 0.0 - Cloudy - - - - -
31/04:00am 20.6 SE 5 10 1021.3 - 0.0 - Cloudy - - - - -
31/03:30am 20.7 ESE 7 12 1021.5 - 0.0 - Cloudy - - - - -
31/03:00am 20.6 SE 5 8 1021.9 - 0.0 - Cloudy - - - - -
31/02:30am 20.5 SE 7 11 1022.1 - 0.0 - Cloudy - - - - -
31/02:00am 20.6 SSE 7 11 1022.3 - 0.0 - Cloudy - - - - -
31/01:30am 20.3 SSE 7 11 1022.7 - 0.0 - Cloudy - - - - -
31/01:00am 20.3 SSE 7 11 1022.9 - 0.0 - Cloudy - - - - -
31/12:30am 20.2 SSE 8 12 1023.0 - 0.0 - Cloudy - - - - -
31/12:00am 20.4 SSE 9 15 1023.2 - 0.0 - Cloudy - - - - -
 
Date/Time
EST
Temp
°C
Wind Pressure Rain since
9am
mm
Weather Cloud Vis
km
Sea
Height
m
Swell
Dir  Spd
kts
Gust
kts
hPa Trend Height
m
Period
s
Dir
30/11:30pm 20.4 SE 9 14 1023.3 - 0.0 - Cloudy - - - - -
30/11:00pm 20.5 SE 7 11 1023.5 - 0.0 - Cloudy - - - - -
30/10:30pm 20.4 SE 8 13 1023.5 - 0.0 - Cloudy - - - - -
30/10:00pm 20.7 SE 7 12 1023.7 - 0.0 - Cloudy - - - - -
30/09:30pm 21.0 ESE 9 13 1023.9 - 0.0 - Cloudy - - - - -
30/09:00pm 20.9 SSE 7 12 1023.9 F 0.0 - Cloudy - - - - -
30/08:30pm 20.8 SSE 6 11 1023.8 - 0.0 - Cloudy - - - - -
30/08:00pm 20.9 SE 7 11 1023.7 - 0.0 - Cloudy - - - - -
30/07:30pm 20.9 SE 8 12 1023.3 - 0.0 - Cloudy - - - - -
30/07:00pm 20.9 SSE 8 12 1023.1 - 0.0 - Cloudy - - - - -
30/06:30pm 20.9 SSE 8 13 1022.7 - 0.0 - Cloudy - - - - -
30/06:00pm 21.0 SSE 8 12 1022.4 R 0.0 - Cloudy - - - - -
30/05:30pm 21.2 SE 7 11 1022.1 - 0.0 - Cloudy - - - - -
30/05:00pm 21.5 SE 7 12 1021.9 - 0.0 - Cloudy - - - - -
30/04:30pm 21.9 SE 7 13 1021.6 - 0.0 - Cloudy - - - - -
30/04:00pm 22.3 SE 7 12 1021.4 - 0.0 - Cloudy - - - - -
30/03:30pm 22.5 SE 8 15 1021.4 - 0.0 - Cloudy - - - - -
30/03:00pm 22.4 SE 9 14 1021.6 R 0.0 - Cloudy - - - - -
30/02:30pm 22.7 SE 9 14 1021.7 - 0.0 - Cloudy - - - - -
30/02:00pm 22.8 SE 10 15 1022.3 - 0.0 - Cloudy - - - - -
30/01:30pm 23.0 SE 9 14 1022.4 - 0.0 - Cloudy - - - - -
30/01:00pm 23.5 SE 7 13 1022.7 - 0.0 - Cloudy - - - - -
30/12:30pm 23.3 SE 7 13 1023.1 - 0.0 - Cloudy - - - - -
30/12:00pm 22.8 SE 9 15 1023.6 R 0.0 - Cloudy - - - - -
30/11:30am 23.0 SE 9 13 1024.0 - 0.0 - Cloudy - - - - -
30/11:00am 22.9 ESE 6 11 1024.2 - 0.0 - Cloudy - - - - -
30/10:30am 22.4 E 8 13 1024.4 - 0.0 - Cloudy - - - - -
30/10:00am 22.7 E 9 13 1024.5 - 0.0 - Cloudy - - - - -
30/09:30am 22.7 E 9 14 1024.3 - 0.0 - Cloudy - - - - -
30/09:00am 21.9 ESE 6 9 1024.2 R 0.0 - Cloudy - - - - -
30/08:30am 21.8 ESE 6 10 1024.0 - 0.0 - Cloudy - - - - -
30/08:00am 21.3 SE 6 10 1023.6 - 0.0 - Partly cloudy - - - - -
30/07:30am 21.1 ESE 7 11 1023.2 - 0.0 - Cloudy - - - - -
30/07:00am 20.4 ESE 7 11 1022.9 - 0.0 - Partly cloudy - - - - -
30/06:30am 20.6 ESE 7 12 1022.6 - 0.0 - Partly cloudy - - - - -
30/06:00am 20.7 E 9 14 1022.4 R 0.0 - Partly cloudy - - - - -
30/05:30am 20.6 ESE 7 11 1022.0 - 0.0 - Cloudy - - - - -
30/05:00am 20.5 ESE 8 13 1021.5 - 0.0 - Cloudy - - - - -
30/04:30am 20.3 SE 9 15 1021.3 - 0.0 - Partly cloudy - - - - -
30/04:00am 19.7 SE 8 12 1021.3 - 0.0 - Partly cloudy - - - - -
30/03:30am 20.0 SE 9 17 1021.2 - 0.0 - Partly cloudy - - - - -
30/03:00am 20.2 SE 8 12 1021.3 - 0.0 - Cloudy - - - - -
30/02:30am 20.1 SE 9 15 1021.3 - 0.0 - Partly cloudy - - - - -
30/02:00am 20.3 SE 9 15 1021.4 - 0.0 - Cloudy - - - - -
30/01:30am 20.5 SE 7 12 1021.6 - 0.0 - Cloudy - - - - -
30/01:00am 20.4 SE 8 14 1021.9 - 0.0 - Cloudy - - - - -
30/12:30am 20.3 SE 8 13 1021.9 - 0.0 - Partly cloudy - - - - -
30/12:00am 20.4 ESE 8 15 1022.2 - 0.0 - Mostly clear - - - - -
 
Date/Time
EST
Temp
°C
Wind Pressure Rain since
9am
mm
Weather Cloud Vis
km
Sea
Height
m
Swell
Dir  Spd
kts
Gust
kts
hPa Trend Height
m
Period
s
Dir
29/11:30pm 20.2 ESE 8 13 1022.3 - 0.0 - Partly cloudy - - - - -
29/11:00pm 20.2 ESE 9 16 1022.4 - 0.0 - - - - - - -
29/10:30pm 20.2 ESE 9 14 1022.4 - 0.0 - Partly cloudy - - - - -
29/10:00pm 20.4 ESE 9 15 1022.5 - 0.0 - Partly cloudy - - - - -
29/09:30pm 20.6 ESE 9 15 1022.8 - 0.0 - Partly cloudy - - - - -
29/09:00pm 20.3 ESE 10 17 1022.8 F 0.0 - Mostly clear - - - - -
29/08:30pm 20.2 ESE 10 15 1022.7 - 0.0 - - - - - - -
29/08:00pm 20.3 ESE 9 15 1022.5 - 0.0 - Partly cloudy - - - - -
29/07:30pm 20.4 SE 10 16 1022.3 - 0.0 - Partly cloudy - - - - -
29/07:00pm 20.2 SE 10 17 1022.2 - 0.0 - Partly cloudy - - - - -
29/06:30pm 20.2 SE 9 15 1022.1 - 0.0 - - - - - - -
29/06:00pm 20.2 SE 9 13 1021.8 S 0.0 - - - - - - -
29/05:30pm 20.4 SSE 9 14 1021.7 - 0.0 - - - - - - -
29/05:00pm 20.8 SSE 9 17 1021.8 - 0.0 - - - - - - -
29/04:30pm 21.2 SSE 11 17 1021.6 - 0.0 - - - - - - -
29/04:00pm 20.9 SSE 11 16 1021.5 - 0.0 - Cloudy - - - - -
29/03:30pm 21.3 SSE 11 19 1021.3 - 0.0 - Cloudy - - - - -
29/03:00pm 22.1 SSE 11 17 1021.2 R 0.0 - Mostly cloudy - - - - -
29/02:30pm 22.3 SSE 10 16 1021.5 - 0.0 - - - - - - -
29/02:00pm 22.3 SSE 11 16 1021.7 - 0.0 - - - - - - -
29/01:30pm 22.8 SSE 11 17 1021.9 - 0.0 - - - - - - -
29/01:00pm 22.6 SSE 11 16 1022.1 - 0.0 - - - - - - -
29/12:30pm 22.4 SSE 9 15 1022.4 - 0.0 - - - - - - -
29/12:00pm 22.4 SSE 10 16 1022.9 R 0.0 - - - - - - -
29/11:30am 21.9 SSE 11 16 1023.2 - 0.0 - - - - - - -
29/11:00am 22.0 SSE 10 16 1023.2 - 0.0 - - - - - - -
29/10:30am 21.7 SSE 9 13 1023.4 - 0.0 - - - - - - -
29/10:00am 21.5 S 8 13 1023.6 - 0.0 - - - - - - -
29/09:30am 20.3 S 8 11 1023.7 - 0.0 - Partly cloudy - - - - -
29/09:00am 18.7 SSW 7 9 1023.5 S 0.0 - Cloudy - - - - -
29/08:30am 16.9 SW 5 7 1023.6 - 0.0 - Cloudy - - - - -
29/08:00am 16.0 SSW 8 11 1023.3 - 0.0 - Cloudy - - - - -
29/07:30am 14.8 SW 5 8 1023.0 - 0.0 - Cloudy - - - - -
29/07:00am 14.2 SW 6 8 1022.6 - 0.0 - Cloudy - - - - -
29/06:30am 13.9 SW 8 10 1022.2 - 0.0 - Cloudy - - - - -
29/06:00am 13.8 SW 7 9 1021.9 R 0.0 - Cloudy - - - - -
29/05:30am 13.7 SW 8 10 1021.5 - 0.0 - Cloudy - - - - -
29/05:00am 13.5 SW 8 11 1021.4 - 0.0 - Cloudy - - - - -
29/04:30am 13.0 SW 7 9 1021.3 - 0.0 - Partly cloudy - - - - -
29/04:00am 13.1 WSW 8 10 1021.0 - 0.0 - Partly cloudy - - - - -
29/03:30am 12.7 SW 7 9 1021.0 - 0.0 - Partly cloudy - - - - -
29/03:00am 12.9 SW 7 9 1021.2 - 0.0 - Partly cloudy - - - - -
29/02:30am 13.2 WSW 7 10 1021.1 - 0.0 - Partly cloudy - - - - -
29/02:00am 13.2 WSW 6 8 1021.3 - 0.0 - Partly cloudy - - - - -
29/01:30am 13.3 WSW 7 8 1021.5 - 0.0 - Partly cloudy - - - - -
29/01:00am 13.4 WSW 6 7 1021.7 - 0.0 - Partly cloudy - - - - -
29/12:30am 13.6 WSW 8 10 1022.1 - 0.0 - Partly cloudy - - - - -
29/12:00am 14.0 SSW 5 8 1021.9 - 0.0 - Partly cloudy - - - - -
 
Date/Time
EST
Temp
°C
Wind Pressure Rain since
9am
mm
Weather Cloud Vis
km
Sea
Height
m
Swell
Dir  Spd
kts
Gust
kts
hPa Trend Height
m
Period
s
Dir
28/11:30pm 15.1 SSE 5 8 1021.8 - 0.0 - Partly cloudy - - - - -
28/11:00pm 16.1 SSE 5 9 1021.8 - 0.0 - Partly cloudy - - - - -
28/10:30pm 15.7 SSW 4 7 1022.0 - 0.0 - Partly cloudy - - - - -
28/10:00pm 18.3 ESE 6 9 1022.1 - 0.0 - Partly cloudy - - - - -
28/09:30pm 18.1 SE 7 13 1022.2 - 0.0 - - - - - - -
28/09:00pm 18.3 SE 7 13 1022.1 F 0.0 - - - - - - -
28/08:30pm 18.4 SE 7 13 1022.0 - 0.0 - - - - - - -
28/08:00pm 18.4 SE 7 11 1021.8 - 0.0 - Partly cloudy - - - - -
28/07:30pm 18.0 SSE 7 13 1021.6 - 0.0 - - - - - - -
28/07:00pm 18.0 SE 7 12 1021.4 - 0.0 - Partly cloudy - - - - -
28/06:30pm 17.7 SSE 7 11 1021.1 - 0.0 - Partly cloudy - - - - -
28/06:00pm 18.3 SE 8 11 1021.0 F 0.0 - - - - - - -
28/05:30pm 18.2 SSE 9 14 1020.8 - 0.0 - - - - - - -
28/05:00pm 18.8 SSE 8 12 1020.8 - 0.0 - - - - - - -
28/04:30pm 19.2 SE 9 13 1020.7 - 0.0 - - - - - - -
28/04:00pm 19.8 SE 7 12 1020.5 - 0.0 - - - - - - -
28/03:30pm 20.1 SSE 7 14 1020.5 - 0.0 - - - - - - -
28/03:00pm 19.7 SSE 8 12 1020.5 R 0.0 - - - - - - -
28/02:30pm 19.9 SE 9 13 1020.8 - 0.0 - - - - - - -
28/02:00pm 20.1 SSE 8 14 1021.0 - 0.0 - - - - - - -
28/01:30pm 20.2 SSE 9 12 1021.4 - 0.0 - - - - - - -
28/01:00pm 20.4 SSE 8 15 1021.9 - 0.0 - - - - - - -
28/12:30pm 20.6 SSE 8 14 1022.2 - 0.0 - - - - - - -
28/12:00pm 20.8 SSE 9 15 1022.6 F 0.0 - - - - - - -
28/11:30am 20.3 SSE 10 17 1023.0 - 0.0 - - - - - - -
28/11:00am 19.9 SSE 11 17 1023.4 - 0.0 - - - - - - -
28/10:30am 19.3 SSE 12 17 1023.5 - 0.0 - - - - - - -
28/10:00am 19.3 S 10 15 1023.9 - 0.0 - - - - - - -
28/09:30am 19.0 S 9 16 1023.8 - 0.0 - - - - - - -
28/09:00am 17.3 SSW 9 14 1023.6 F 0.0 - - - - - - -
28/08:30am 15.4 SSW 7 11 1023.8 - 0.0 - - - - - - -
28/08:00am 13.4 SW 7 9 1023.4 - 0.0 - - - - - - -
28/07:30am 11.6 SW 8 9 1023.1 - 0.0 - - - - - - -
28/07:00am 10.0 SW 8 9 1022.7 - 0.0 - - - - - - -

Other Formats:

Comma delimited format used in spreadsheet applications
http://www.bom.gov.au/fwo/IDQ60701/IDQ60701.94367.axf

JavaScript Object Notation format (JSON) in row-major order
http://www.bom.gov.au/fwo/IDQ60701/IDQ60701.94367.json